To NAV CANADA Home Page Login to a new session Search on AWWS site Feedback and Comments Disclaimer Vers la page française équivalente Tips FAQ What's new on the site To the Forecasts and Observations / NOTAM section To "File a Flight Plan" website Publications and other links Update of the User's profile FIC Telephone Numbers My Weather Data Folder Route Weather Data Regional Weather Data Local Weather Data To the Forecasts and Observations / NOTAM section
Request Generated 04/28/2015 at 11:51:24 UTC . Weather information available at that time is displayed.

METAR/TAF

SASKATOON/JOHN G. DIEFENBAKER INTL/SK    

METAR CYXE 281100Z 19008KT 15SM FEW250 03/M00 A3013 RMK CI1 SLP219=
METAR CYXE 281000Z 19008KT 15SM SCT250 04/00 A3012 RMK CI3 SLP218=
METAR CYXE 280900Z 18005KT 15SM SCT250 05/00 A3012 RMK CI4 SLP217=

TAF CYXE 281138Z 2812/2912 19008KT P6SM SCT250
BECMG 2820/2822 14008KT
BECMG 2908/2910 18008KT
RMK NXT FCST BY 281800Z=
Your time UTC time
Weather data provided by Environment Canada and NAV CANADA